Time;durP1;ratioP1;P1;durP2;ratioP2;P2;SDS_P1;SDS_P2;PMS_P1;PMS_P2;Temp;Humidity;BMP_temperature;BMP_pressure;BME280_temperature;BME280_humidity;BME280_pressure;Samples;Min_cycle;Max_cycle;Signal;HPM_P1;HPM_P2
2022/01/05 00:01:17;;;;;;;0.20;0.20;;;;;;;;;;7389429;19;19995;-76
2022/01/05 00:03:43;;;;;;;0.20;0.20;;;;;;;;;;7390787;19;20347;-76
2022/01/05 00:06:09;;;;;;;0.20;0.20;;;;;;;;;;7390744;19;20001;-77
2022/01/05 00:08:36;;;;;;;0.30;0.30;;;;;;;;;;7388701;19;19999;-77
2022/01/05 00:11:02;;;;;;;0.50;0.40;;;;;;;;;;7390173;19;19998;-76
2022/01/05 00:13:27;;;;;;;0.45;0.38;;;;;;;;;;7389929;19;20054;-76
2022/01/05 00:15:53;;;;;;;0.40;0.40;;;;;;;;;;7390824;19;20027;-75
2022/01/05 00:18:18;;;;;;;0.40;0.40;;;;;;;;;;7387961;19;20394;-76
2022/01/05 00:20:44;;;;;;;0.40;0.40;;;;;;;;;;7387012;19;20012;-76
2022/01/05 00:23:09;;;;;;;0.40;0.40;;;;;;;;;;7389512;19;20008;-77
2022/01/05 00:25:35;;;;;;;0.50;0.50;;;;;;;;;;7389978;19;19998;-77
2022/01/05 00:28:00;;;;;;;0.20;0.20;;;;;;;;;;7389413;19;20572;-77
2022/01/05 00:30:25;;;;;;;0.63;0.40;;;;;;;;;;7389201;19;20587;-77
2022/01/05 00:32:51;;;;;;;0.50;0.50;;;;;;;;;;7390320;19;20015;-79
2022/01/05 00:35:16;;;;;;;0.50;0.50;;;;;;;;;;7390790;19;19995;-78
2022/01/05 00:37:41;;;;;;;0.68;0.68;;;;;;;;;;7390533;19;20010;-77
2022/01/05 00:40:07;;;;;;;0.50;0.50;;;;;;;;;;7387974;19;20002;-76
2022/01/05 00:42:33;;;;;;;1.10;0.50;;;;;;;;;;7387843;19;20003;-77
2022/01/05 00:44:58;;;;;;;0.68;0.57;;;;;;;;;;7389554;19;20071;-76
2022/01/05 00:47:24;;;;;;;0.50;0.50;;;;;;;;;;7392864;19;19999;-76
2022/01/05 00:49:49;;;;;;;0.95;0.52;;;;;;;;;;7386615;19;19999;-77
2022/01/05 00:52:14;;;;;;;0.50;0.50;;;;;;;;;;7391984;19;19998;-77
2022/01/05 00:54:43;;;;;;;0.30;0.30;;;;;;;;;;7389082;19;19991;-76
2022/01/05 00:57:08;;;;;;;2.17;1.10;;;;;;;;;;7388418;19;20029;-75
2022/01/05 00:59:34;;;;;;;1.00;0.90;;;;;;;;;;7385114;19;20448;-75
2022/01/05 01:01:59;;;;;;;0.60;0.60;;;;;;;;;;7387330;19;19991;-76
2022/01/05 01:04:24;;;;;;;1.00;0.50;;;;;;;;;;7388402;19;20444;-76
2022/01/05 01:06:50;;;;;;;0.55;0.55;;;;;;;;;;7388447;19;19995;-75
2022/01/05 01:09:15;;;;;;;0.32;0.32;;;;;;;;;;7385838;19;20085;-75
2022/01/05 01:11:40;;;;;;;0.47;0.47;;;;;;;;;;7388722;19;19995;-75
2022/01/05 01:14:06;;;;;;;0.40;0.40;;;;;;;;;;7388259;19;19995;-75
2022/01/05 01:16:31;;;;;;;0.40;0.40;;;;;;;;;;7388453;19;19994;-75
2022/01/05 01:18:56;;;;;;;0.65;0.57;;;;;;;;;;7386147;19;20005;-75
2022/01/05 01:21:22;;;;;;;0.30;0.30;;;;;;;;;;7386738;19;20519;-75
2022/01/05 01:23:56;;;;;;;0.47;0.47;;;;;;;;;;7387294;19;20001;-75
2022/01/05 01:26:23;;;;;;;0.10;0.10;;;;;;;;;;7388425;19;20329;-75
2022/01/05 01:28:49;;;;;;;0.10;0.03;;;;;;;;;;7386079;19;20009;-75
2022/01/05 01:31:15;;;;;;;0.30;0.20;;;;;;;;;;7389445;19;20018;-75
2022/01/05 01:33:40;;;;;;;0.43;0.30;;;;;;;;;;7387762;19;19994;-75
2022/01/05 01:36:05;;;;;;;0.32;0.10;;;;;;;;;;7390520;19;20033;-75
2022/01/05 01:38:31;;;;;;;0.55;0.30;;;;;;;;;;7388289;19;20009;-75
2022/01/05 01:40:56;;;;;;;0.10;0.10;;;;;;;;;;7385590;19;20337;-75
2022/01/05 01:43:21;;;;;;;0.10;0.10;;;;;;;;;;7387310;19;19998;-75
2022/01/05 01:45:47;;;;;;;0.00;0.00;;;;;;;;;;7387584;19;19997;-75
2022/01/05 01:48:12;;;;;;;0.08;0.08;;;;;;;;;;7385597;19;20002;-75
2022/01/05 01:50:37;;;;;;;0.05;0.05;;;;;;;;;;7387854;19;20010;-75
2022/01/05 01:53:03;;;;;;;0.10;0.10;;;;;;;;;;7387716;19;20020;-75
2022/01/05 01:55:28;;;;;;;0.20;0.20;;;;;;;;;;7387705;19;20006;-75
2022/01/05 01:57:55;;;;;;;0.20;0.20;;;;;;;;;;7386844;19;20002;-75
2022/01/05 02:00:20;;;;;;;0.10;0.10;;;;;;;;;;7385948;19;19990;-75
2022/01/05 02:02:46;;;;;;;0.40;0.20;;;;;;;;;;7387939;19;20010;-75
2022/01/05 02:05:11;;;;;;;0.25;0.25;;;;;;;;;;7387049;19;20455;-74
2022/01/05 02:07:37;;;;;;;0.10;0.10;;;;;;;;;;7386597;19;19998;-75
2022/01/05 02:10:07;;;;;;;0.10;0.10;;;;;;;;;;7390707;19;20436;-75
2022/01/05 02:12:33;;;;;;;0.20;0.20;;;;;;;;;;7394842;19;20780;-75
2022/01/05 02:14:59;;;;;;;0.30;0.30;;;;;;;;;;7394371;19;20078;-74
2022/01/05 02:17:46;;;;;;;0.63;0.38;;;;;;;;;;7393717;19;20302;-75
2022/01/05 02:20:14;;;;;;;0.20;0.20;;;;;;;;;;7395630;19;20022;-75
2022/01/05 02:22:40;;;;;;;0.50;0.28;;;;;;;;;;7393983;19;20003;-75
2022/01/05 02:25:05;;;;;;;0.30;0.30;;;;;;;;;;7395268;19;20331;-75
2022/01/05 02:27:31;;;;;;;0.40;0.40;;;;;;;;;;7397331;19;19987;-75
2022/01/05 02:29:56;;;;;;;0.35;0.35;;;;;;;;;;7392007;19;20002;-75
2022/01/05 02:32:21;;;;;;;0.40;0.40;;;;;;;;;;7393521;19;19998;-75
2022/01/05 02:34:47;;;;;;;0.47;0.40;;;;;;;;;;7393456;19;19997;-75
2022/01/05 02:37:12;;;;;;;0.32;0.32;;;;;;;;;;7391905;19;20356;-75
2022/01/05 02:39:37;;;;;;;0.47;0.47;;;;;;;;;;7389876;19;20002;-75
2022/01/05 02:42:03;;;;;;;0.50;0.50;;;;;;;;;;7391696;19;19991;-75
2022/01/05 02:44:28;;;;;;;0.52;0.40;;;;;;;;;;7392982;19;20310;-75
2022/01/05 02:46:53;;;;;;;0.90;0.55;;;;;;;;;;7392329;19;20448;-75
2022/01/05 02:49:19;;;;;;;0.65;0.47;;;;;;;;;;7390313;19;19999;-75
2022/01/05 02:51:44;;;;;;;0.28;0.25;;;;;;;;;;7393368;19;19994;-75
2022/01/05 02:54:09;;;;;;;0.57;0.40;;;;;;;;;;7392709;19;20457;-75
2022/01/05 02:56:35;;;;;;;0.40;0.40;;;;;;;;;;7393047;19;20345;-75
2022/01/05 02:59:03;;;;;;;0.47;0.47;;;;;;;;;;7389570;19;19999;-75
2022/01/05 03:01:28;;;;;;;0.50;0.50;;;;;;;;;;7392184;19;20022;-75
2022/01/05 03:03:55;;;;;;;1.38;0.40;;;;;;;;;;7393011;19;19991;-75
2022/01/05 03:06:22;;;;;;;0.30;0.30;;;;;;;;;;7392721;19;20005;-75
2022/01/05 03:08:47;;;;;;;0.55;0.38;;;;;;;;;;7390134;19;20341;-75
2022/01/05 03:11:14;;;;;;;0.88;0.50;;;;;;;;;;7392544;19;19999;-74
2022/01/05 03:13:39;;;;;;;0.30;0.30;;;;;;;;;;7392258;19;20054;-74
2022/01/05 03:16:07;;;;;;;0.20;0.20;;;;;;;;;;7396913;19;20012;-76
2022/01/05 03:18:32;;;;;;;0.40;0.20;;;;;;;;;;7394470;19;20018;-76
2022/01/05 03:20:58;;;;;;;0.20;0.20;;;;;;;;;;7389152;19;20002;-76
2022/01/05 03:23:23;;;;;;;0.10;0.10;;;;;;;;;;7392412;19;19990;-74
2022/01/05 03:25:48;;;;;;;0.30;0.30;;;;;;;;;;7392530;19;20002;-74
2022/01/05 03:28:13;;;;;;;0.10;0.10;;;;;;;;;;7390076;19;20013;-74
2022/01/05 03:30:40;;;;;;;0.17;0.17;;;;;;;;;;7392250;19;20282;-75
2022/01/05 03:33:12;;;;;;;0.20;0.20;;;;;;;;;;7392026;19;20009;-75
2022/01/05 03:35:40;;;;;;;0.20;0.20;;;;;;;;;;7391882;19;19994;-75
2022/01/05 03:38:06;;;;;;;0.28;0.20;;;;;;;;;;7390881;19;20010;-75
2022/01/05 03:40:32;;;;;;;0.20;0.20;;;;;;;;;;7391003;19;20452;-75
2022/01/05 03:42:57;;;;;;;0.10;0.10;;;;;;;;;;7391615;19;19995;-75
2022/01/05 03:45:23;;;;;;;0.10;0.10;;;;;;;;;;7392483;19;20090;-75
2022/01/05 03:47:48;;;;;;;0.28;0.28;;;;;;;;;;7391343;19;20472;-76
2022/01/05 03:50:13;;;;;;;0.20;0.10;;;;;;;;;;7390840;19;19995;-78
2022/01/05 03:52:39;;;;;;;0.10;0.10;;;;;;;;;;7391840;19;20022;-76
2022/01/05 03:55:05;;;;;;;0.43;0.13;;;;;;;;;;7391505;19;19991;-76
2022/01/05 03:57:32;;;;;;;0.50;0.10;;;;;;;;;;7390623;19;19986;-76
2022/01/05 03:59:57;;;;;;;0.30;0.17;;;;;;;;;;7390487;19;19991;-75
2022/01/05 04:02:23;;;;;;;0.00;0.00;;;;;;;;;;7391805;19;20328;-75
2022/01/05 04:04:48;;;;;;;1.10;0.40;;;;;;;;;;7392283;19;19997;-75
2022/01/05 04:07:15;;;;;;;0.22;0.20;;;;;;;;;;7393022;19;20362;-75
2022/01/05 04:09:41;;;;;;;0.05;0.03;;;;;;;;;;7387874;19;19998;-75
2022/01/05 04:12:07;;;;;;;0.00;0.00;;;;;;;;;;7390838;19;19986;-75
2022/01/05 04:14:32;;;;;;;0.40;0.25;;;;;;;;;;7390405;19;19998;-75
2022/01/05 04:16:57;;;;;;;0.52;0.00;;;;;;;;;;7390817;19;20002;-75
2022/01/05 04:19:23;;;;;;;0.00;0.00;;;;;;;;;;7388072;19;20093;-75
2022/01/05 04:21:49;;;;;;;0.10;0.05;;;;;;;;;;7389240;19;20074;-75
2022/01/05 04:24:15;;;;;;;0.00;0.00;;;;;;;;;;7390149;19;20473;-75
2022/01/05 04:26:40;;;;;;;0.00;0.00;;;;;;;;;;7390023;19;20034;-75
2022/01/05 04:29:05;;;;;;;0.20;0.10;;;;;;;;;;7387697;19;19999;-75
2022/01/05 04:31:31;;;;;;;0.00;0.00;;;;;;;;;;7390256;19;19995;-75
2022/01/05 04:33:56;;;;;;;0.10;0.10;;;;;;;;;;7389827;19;20485;-75
2022/01/05 04:36:21;;;;;;;0.00;0.00;;;;;;;;;;7390014;19;19990;-75
2022/01/05 04:38:47;;;;;;;0.85;0.10;;;;;;;;;;7387379;19;19995;-75
2022/01/05 04:41:12;;;;;;;0.00;0.00;;;;;;;;;;7388249;19;19995;-75
2022/01/05 04:43:37;;;;;;;0.00;0.00;;;;;;;;;;7388542;19;19990;-75
2022/01/05 04:46:03;;;;;;;0.00;0.00;;;;;;;;;;7389742;19;20468;-75
2022/01/05 04:48:29;;;;;;;0.00;0.00;;;;;;;;;;7389001;19;20002;-75
2022/01/05 04:50:54;;;;;;;0.00;0.00;;;;;;;;;;7389424;19;20026;-75
2022/01/05 04:53:20;;;;;;;0.20;0.08;;;;;;;;;;7389208;19;19994;-75
2022/01/05 04:55:45;;;;;;;0.00;0.00;;;;;;;;;;7393190;19;19991;-75
2022/01/05 04:58:10;;;;;;;0.10;0.00;;;;;;;;;;7387792;19;20021;-75
2022/01/05 05:00:36;;;;;;;0.00;0.00;;;;;;;;;;7388499;19;20009;-75
2022/01/05 05:03:01;;;;;;;0.00;0.00;;;;;;;;;;7388392;19;20002;-75
2022/01/05 05:05:27;;;;;;;0.00;0.00;;;;;;;;;;7388967;19;19995;-75
2022/01/05 05:07:52;;;;;;;0.00;0.00;;;;;;;;;;7388316;19;19994;-75
2022/01/05 05:10:17;;;;;;;0.08;0.00;;;;;;;;;;7387724;19;20069;-75
2022/01/05 05:12:43;;;;;;;0.00;0.00;;;;;;;;;;7389041;19;20022;-75
2022/01/05 05:15:08;;;;;;;0.65;0.08;;;;;;;;;;7388507;19;20370;-75
2022/01/05 05:17:34;;;;;;;0.00;0.00;;;;;;;;;;7388516;19;20001;-75
2022/01/05 05:19:59;;;;;;;0.03;0.03;;;;;;;;;;7387557;19;19997;-75
2022/01/05 05:22:24;;;;;;;0.00;0.00;;;;;;;;;;7388565;19;19991;-75
2022/01/05 05:24:50;;;;;;;0.00;0.00;;;;;;;;;;7388319;19;20023;-75
2022/01/05 05:27:15;;;;;;;0.08;0.00;;;;;;;;;;7388108;19;19999;-75
2022/01/05 05:29:40;;;;;;;0.20;0.00;;;;;;;;;;7385583;19;19990;-75
2022/01/05 05:32:07;;;;;;;0.00;0.00;;;;;;;;;;7388382;19;19991;-75
2022/01/05 05:34:32;;;;;;;0.05;0.00;;;;;;;;;;7388115;19;20070;-75
2022/01/05 05:36:57;;;;;;;0.00;0.00;;;;;;;;;;7388125;19;20011;-75
2022/01/05 05:39:22;;;;;;;0.00;0.00;;;;;;;;;;7385263;19;19992;-75
2022/01/05 05:41:48;;;;;;;0.00;0.00;;;;;;;;;;7386236;19;19995;-76
2022/01/05 05:44:13;;;;;;;0.93;0.00;;;;;;;;;;7389391;19;20350;-76
2022/01/05 05:46:38;;;;;;;0.10;0.00;;;;;;;;;;7391899;19;19995;-75
2022/01/05 05:49:04;;;;;;;0.00;0.00;;;;;;;;;;7385591;19;20460;-75
2022/01/05 05:51:29;;;;;;;0.00;0.00;;;;;;;;;;7387577;19;19991;-75
2022/01/05 05:53:54;;;;;;;0.55;0.10;;;;;;;;;;7388056;19;20452;-75
2022/01/05 05:56:20;;;;;;;0.10;0.03;;;;;;;;;;7388306;19;20018;-77
2022/01/05 05:58:45;;;;;;;0.35;0.10;;;;;;;;;;7385646;19;19995;-74
2022/01/05 06:01:10;;;;;;;0.00;0.00;;;;;;;;;;7386442;19;19995;-74
2022/01/05 06:03:36;;;;;;;0.15;0.00;;;;;;;;;;7387056;19;20007;-76
2022/01/05 06:06:01;;;;;;;0.08;0.00;;;;;;;;;;7387586;19;20061;-75
2022/01/05 06:08:26;;;;;;;0.47;0.00;;;;;;;;;;7384281;19;20456;-77
2022/01/05 06:10:52;;;;;;;0.22;0.20;;;;;;;;;;7387144;19;20020;-75
2022/01/05 06:13:17;;;;;;;0.13;0.10;;;;;;;;;;7387102;19;19997;-75
2022/01/05 06:15:42;;;;;;;0.15;0.15;;;;;;;;;;7387189;19;20102;-74
2022/01/05 06:18:08;;;;;;;0.03;0.00;;;;;;;;;;7385393;19;19999;-77
2022/01/05 06:20:33;;;;;;;1.95;0.17;;;;;;;;;;7386349;19;19998;-75
2022/01/05 06:22:58;;;;;;;1.42;0.20;;;;;;;;;;7386818;19;19994;-75
2022/01/05 06:25:24;;;;;;;0.00;0.00;;;;;;;;;;7387033;19;19993;-74
2022/01/05 06:27:49;;;;;;;2.00;0.68;;;;;;;;;;7386224;19;19995;-77
2022/01/05 06:30:14;;;;;;;0.15;0.13;;;;;;;;;;7385733;19;19995;-77
2022/01/05 06:32:47;;;;;;;0.10;0.10;;;;;;;;;;7386735;19;20030;-77
2022/01/05 06:35:14;;;;;;;0.00;0.00;;;;;;;;;;7390692;19;20059;-77
2022/01/05 06:37:40;;;;;;;0.00;0.00;;;;;;;;;;7390505;19;20894;-77
2022/01/05 06:40:06;;;;;;;0.08;0.08;;;;;;;;;;7384997;19;20012;-74
2022/01/05 06:42:32;;;;;;;0.00;0.00;;;;;;;;;;7384759;19;20365;-74
2022/01/05 06:44:57;;;;;;;0.00;0.00;;;;;;;;;;7386958;19;20102;-74
2022/01/05 06:47:22;;;;;;;0.10;0.10;;;;;;;;;;7385912;19;20496;-74
2022/01/05 06:49:48;;;;;;;0.00;0.00;;;;;;;;;;7383179;19;19998;-74
2022/01/05 06:52:13;;;;;;;0.05;0.00;;;;;;;;;;7386485;19;19998;-75
2022/01/05 06:54:40;;;;;;;0.00;0.00;;;;;;;;;;7385794;19;20337;-75
2022/01/05 06:57:06;;;;;;;2.33;0.00;;;;;;;;;;7390798;19;20050;-75
2022/01/05 06:59:32;;;;;;;0.20;0.20;;;;;;;;;;7390010;19;19995;-74
2022/01/05 07:01:57;;;;;;;0.10;0.10;;;;;;;;;;7390917;19;20014;-75
2022/01/05 07:04:22;;;;;;;0.10;0.10;;;;;;;;;;7393224;19;20022;-75
2022/01/05 07:06:48;;;;;;;0.00;0.00;;;;;;;;;;7393762;19;19998;-73
2022/01/05 07:09:13;;;;;;;0.45;0.10;;;;;;;;;;7389703;19;20325;-73
2022/01/05 07:11:40;;;;;;;0.25;0.10;;;;;;;;;;7393014;19;19998;-73
2022/01/05 07:14:05;;;;;;;0.00;0.00;;;;;;;;;;7392405;19;20309;-74
2022/01/05 07:16:31;;;;;;;0.40;0.10;;;;;;;;;;7391584;19;19991;-73
2022/01/05 07:18:56;;;;;;;0.00;0.00;;;;;;;;;;7389675;19;19999;-73
2022/01/05 07:21:21;;;;;;;1.55;1.02;;;;;;;;;;7391294;19;20066;-73
2022/01/05 07:23:46;;;;;;;0.50;0.30;;;;;;;;;;7394752;19;19991;-73
2022/01/05 07:26:12;;;;;;;0.50;0.32;;;;;;;;;;7395801;19;19990;-73
2022/01/05 07:28:37;;;;;;;0.52;0.30;;;;;;;;;;7390107;19;20020;-73
2022/01/05 07:31:02;;;;;;;0.60;0.50;;;;;;;;;;7392586;19;19998;-73
2022/01/05 07:33:28;;;;;;;0.65;0.40;;;;;;;;;;7392263;19;20023;-73
2022/01/05 07:35:53;;;;;;;0.30;0.20;;;;;;;;;;7392090;19;19999;-74
2022/01/05 07:38:19;;;;;;;0.10;0.10;;;;;;;;;;7389435;19;20456;-73
2022/01/05 07:40:44;;;;;;;0.20;0.20;;;;;;;;;;7391564;19;20087;-73
2022/01/05 07:43:09;;;;;;;0.40;0.10;;;;;;;;;;7391843;19;19990;-74
2022/01/05 07:45:35;;;;;;;0.10;0.10;;;;;;;;;;7390458;19;20460;-73
2022/01/05 07:48:04;;;;;;;0.32;0.10;;;;;;;;;;7390882;19;20003;-73
2022/01/05 07:50:30;;;;;;;0.35;0.35;;;;;;;;;;7391170;19;20352;-73
2022/01/05 07:52:55;;;;;;;0.22;0.20;;;;;;;;;;7391329;19;19998;-73
2022/01/05 07:55:20;;;;;;;0.22;0.22;;;;;;;;;;7391476;19;20436;-73
2022/01/05 07:57:46;;;;;;;0.45;0.30;;;;;;;;;;7390980;19;20058;-74
2022/01/05 08:00:12;;;;;;;0.43;0.15;;;;;;;;;;7389570;19;19999;-74
2022/01/05 08:02:37;;;;;;;0.15;0.10;;;;;;;;;;7391155;19;19998;-73
2022/01/05 08:05:03;;;;;;;0.20;0.20;;;;;;;;;;7391092;19;19994;-73
2022/01/05 08:07:28;;;;;;;0.08;0.08;;;;;;;;;;7389355;19;19999;-73
2022/01/05 08:09:54;;;;;;;0.20;0.10;;;;;;;;;;7390004;19;20294;-73
2022/01/05 08:12:19;;;;;;;0.22;0.10;;;;;;;;;;7390640;19;19990;-72
2022/01/05 08:14:44;;;;;;;0.70;0.30;;;;;;;;;;7394662;19;20479;-73
2022/01/05 08:17:09;;;;;;;0.10;0.10;;;;;;;;;;7390631;19;20002;-73
2022/01/05 08:19:35;;;;;;;0.10;0.10;;;;;;;;;;7387745;19;19995;-74
2022/01/05 08:22:00;;;;;;;0.00;0.00;;;;;;;;;;7388896;19;19995;-74
2022/01/05 08:24:26;;;;;;;0.20;0.20;;;;;;;;;;7390470;19;19999;-74
2022/01/05 08:26:52;;;;;;;0.30;0.10;;;;;;;;;;7390584;19;20461;-74
2022/01/05 08:29:17;;;;;;;0.30;0.30;;;;;;;;;;7387853;19;19995;-74
2022/01/05 08:31:43;;;;;;;0.52;0.52;;;;;;;;;;7390205;19;19987;-75
2022/01/05 08:34:10;;;;;;;0.38;0.28;;;;;;;;;;7390149;19;20464;-76
2022/01/05 08:36:35;;;;;;;0.90;0.30;;;;;;;;;;7391129;19;20003;-76
2022/01/05 08:39:01;;;;;;;0.13;0.13;;;;;;;;;;7387546;19;20005;-76
2022/01/05 08:41:26;;;;;;;0.50;0.30;;;;;;;;;;7388647;19;20054;-74
2022/01/05 08:43:51;;;;;;;0.30;0.30;;;;;;;;;;7393116;19;19995;-74
2022/01/05 08:46:17;;;;;;;0.80;0.77;;;;;;;;;;7389877;19;19991;-74
2022/01/05 08:48:43;;;;;;;1.83;1.13;;;;;;;;;;7387415;19;20402;-74
2022/01/05 08:51:08;;;;;;;2.38;1.00;;;;;;;;;;7389650;19;20030;-73
2022/01/05 08:53:34;;;;;;;1.30;1.20;;;;;;;;;;7389422;19;20393;-74
2022/01/05 08:55:59;;;;;;;1.80;1.60;;;;;;;;;;7389381;19;20001;-74
2022/01/05 08:58:25;;;;;;;1.30;1.00;;;;;;;;;;7387451;19;19999;-73
2022/01/05 09:00:50;;;;;;;2.08;1.30;;;;;;;;;;7388921;19;19997;-78
2022/01/05 09:03:16;;;;;;;1.73;1.10;;;;;;;;;;7391891;19;20023;-78
2022/01/05 09:05:42;;;;;;;0.52;0.50;;;;;;;;;;7392812;19;20018;-75
2022/01/05 09:08:08;;;;;;;0.50;0.50;;;;;;;;;;7387489;19;19999;-76
2022/01/05 09:10:37;;;;;;;1.35;0.70;;;;;;;;;;7388704;19;20018;-75
2022/01/05 09:13:02;;;;;;;2.58;0.90;;;;;;;;;;7388683;19;20094;-73
2022/01/05 09:15:29;;;;;;;4.90;0.93;;;;;;;;;;7388689;19;20513;-73
2022/01/05 09:17:55;;;;;;;3.00;0.95;;;;;;;;;;7388157;19;20062;-73
2022/01/05 09:20:21;;;;;;;1.10;1.00;;;;;;;;;;7385406;19;20007;-74
2022/01/05 09:22:46;;;;;;;1.00;0.90;;;;;;;;;;7388282;19;20012;-74
2022/01/05 09:25:14;;;;;;;1.90;1.00;;;;;;;;;;7388517;19;20023;-74
2022/01/05 09:27:39;;;;;;;2.38;0.90;;;;;;;;;;7388150;19;20468;-74
2022/01/05 09:30:07;;;;;;;1.42;0.82;;;;;;;;;;7387682;19;19987;-73
2022/01/05 09:32:33;;;;;;;1.48;1.10;;;;;;;;;;7388279;19;20304;-73
2022/01/05 09:34:59;;;;;;;2.80;1.15;;;;;;;;;;7388789;19;20010;-73
2022/01/05 09:37:32;;;;;;;3.97;1.10;;;;;;;;;;7388530;19;19999;-73
2022/01/05 09:42:41;;;;;;;0.90;0.88;;;;;;;;;;7388343;19;20012;-73
2022/01/05 09:45:16;;;;;;;1.52;1.08;;;;;;;;;;7387742;19;20006;-73
2022/01/05 09:47:58;;;;;;;1.88;1.30;;;;;;;;;;7387442;19;19991;-73
2022/01/05 09:50:25;;;;;;;2.28;1.00;;;;;;;;;;7386984;19;20006;-73
2022/01/05 09:52:50;;;;;;;1.48;1.13;;;;;;;;;;7388727;19;20433;-73
2022/01/05 09:55:16;;;;;;;3.45;1.35;;;;;;;;;;7390974;19;20022;-73
2022/01/05 09:57:45;;;;;;;2.17;1.15;;;;;;;;;;7391982;19;19998;-73
2022/01/05 10:00:13;;;;;;;1.40;1.05;;;;;;;;;;7386630;19;20050;-73
2022/01/05 10:02:40;;;;;;;2.35;1.00;;;;;;;;;;7388179;19;20006;-73
2022/01/05 10:05:10;;;;;;;2.55;1.30;;;;;;;;;;7387511;19;19999;-73
2022/01/05 10:07:35;;;;;;;1.38;1.00;;;;;;;;;;7387218;19;20003;-73
2022/01/05 10:10:00;;;;;;;2.85;1.10;;;;;;;;;;7386088;19;20017;-72
2022/01/05 10:12:26;;;;;;;3.05;1.17;;;;;;;;;;7386842;19;20077;-73
2022/01/05 10:14:51;;;;;;;2.25;1.50;;;;;;;;;;7387141;19;20098;-72
2022/01/05 10:17:24;;;;;;;1.63;1.10;;;;;;;;;;7387274;19;20001;-72
2022/01/05 10:20:07;;;;;;;1.48;1.00;;;;;;;;;;7384305;19;20010;-72
2022/01/05 10:22:41;;;;;;;2.30;0.98;;;;;;;;;;7387215;19;20002;-72
2022/01/05 10:25:10;;;;;;;2.72;1.05;;;;;;;;;;7386307;19;20014;-72
2022/01/05 10:27:35;;;;;;;1.90;0.90;;;;;;;;;;7386722;19;20017;-72
2022/01/05 10:30:04;;;;;;;2.78;1.05;;;;;;;;;;7387159;19;20062;-71
2022/01/05 10:32:32;;;;;;;2.90;0.88;;;;;;;;;;7394089;19;20323;-72
2022/01/05 10:35:03;;;;;;;1.55;1.00;;;;;;;;;;7394329;19;20002;-72
2022/01/05 10:37:29;;;;;;;0.98;0.85;;;;;;;;;;7393208;19;20566;-72
2022/01/05 10:40:17;;;;;;;1.30;0.95;;;;;;;;;;7393149;19;19991;-72
2022/01/05 10:42:43;;;;;;;2.45;0.90;;;;;;;;;;7394803;19;19999;-72
2022/01/05 10:45:14;;;;;;;1.27;0.90;;;;;;;;;;7397671;19;20094;-72
2022/01/05 10:47:40;;;;;;;1.85;0.93;;;;;;;;;;7393090;19;20015;-72
2022/01/05 10:50:12;;;;;;;1.30;0.65;;;;;;;;;;7392189;19;20011;-72
2022/01/05 10:52:38;;;;;;;1.65;1.02;;;;;;;;;;7393559;19;20428;-72
2022/01/05 10:55:09;;;;;;;1.27;1.00;;;;;;;;;;7393302;19;20530;-72
2022/01/05 10:57:35;;;;;;;3.17;0.75;;;;;;;;;;7392859;19;20022;-71
2022/01/05 11:00:00;;;;;;;1.10;0.88;;;;;;;;;;7391757;19;19995;-71
2022/01/05 11:02:28;;;;;;;2.60;1.23;;;;;;;;;;7390550;19;20002;-71
2022/01/05 11:05:13;;;;;;;2.55;1.67;;;;;;;;;;7392872;19;20394;-72
2022/01/05 11:07:40;;;;;;;2.88;1.98;;;;;;;;;;7392780;19;19997;-72
2022/01/05 11:10:17;;;;;;;1.33;1.08;;;;;;;;;;7391870;19;20026;-72
2022/01/05 11:12:53;;;;;;;3.47;1.63;;;;;;;;;;7392741;19;20006;-72
2022/01/05 11:15:20;;;;;;;3.33;1.55;;;;;;;;;;7393078;19;20006;-72
2022/01/05 11:18:08;;;;;;;2.42;1.40;;;;;;;;;;7391949;19;20362;-72
2022/01/05 11:20:51;;;;;;;2.92;0.98;;;;;;;;;;7391310;19;20070;-71
2022/01/05 11:23:19;;;;;;;4.03;1.40;;;;;;;;;;7392008;19;19999;-73
2022/01/05 11:25:46;;;;;;;3.05;1.23;;;;;;;;;;7392183;19;20107;-71
2022/01/05 11:28:13;;;;;;;3.33;0.88;;;;;;;;;;7390191;19;20074;-71
2022/01/05 11:30:40;;;;;;;2.15;1.40;;;;;;;;;;7391911;19;20002;-70
2022/01/05 11:33:05;;;;;;;1.83;0.90;;;;;;;;;;7394695;19;20002;-69
2022/01/05 11:35:32;;;;;;;3.97;0.82;;;;;;;;;;7396198;19;19991;-69
2022/01/05 11:37:57;;;;;;;1.35;0.73;;;;;;;;;;7390741;19;20010;-70
2022/01/05 11:40:23;;;;;;;1.95;0.60;;;;;;;;;;7390509;19;20009;-69
2022/01/05 11:42:51;;;;;;;1.58;0.77;;;;;;;;;;7389971;19;20019;-69
2022/01/05 11:45:30;;;;;;;1.73;0.57;;;;;;;;;;7392140;19;20026;-69
2022/01/05 11:48:16;;;;;;;1.73;0.70;;;;;;;;;;7391055;19;20066;-69
2022/01/05 11:51:03;;;;;;;3.03;0.88;;;;;;;;;;7391637;19;20004;-69
2022/01/05 11:53:43;;;;;;;1.42;0.60;;;;;;;;;;7391088;19;20010;-69
2022/01/05 11:56:10;;;;;;;1.05;0.65;;;;;;;;;;7391342;19;19994;-69
2022/01/05 11:58:55;;;;;;;2.15;0.70;;;;;;;;;;7388700;19;20031;-69
2022/01/05 12:01:24;;;;;;;3.20;1.08;;;;;;;;;;7390397;19;20003;-69
2022/01/05 12:03:49;;;;;;;1.42;0.73;;;;;;;;;;7391149;19;20814;-70
2022/01/05 12:06:14;;;;;;;1.67;0.80;;;;;;;;;;7391207;19;20153;-69
2022/01/05 12:08:48;;;;;;;2.42;0.90;;;;;;;;;;7388388;19;20032;-69
2022/01/05 12:11:42;;;;;;;1.95;0.60;;;;;;;;;;7390823;19;19995;-70
2022/01/05 12:14:19;;;;;;;1.77;0.57;;;;;;;;;;7390803;19;20006;-69
2022/01/05 12:17:03;;;;;;;1.10;0.60;;;;;;;;;;7390978;19;20090;-69
2022/01/05 12:19:46;;;;;;;1.27;0.70;;;;;;;;;;7387795;19;20003;-69
2022/01/05 12:22:16;;;;;;;4.78;0.90;;;;;;;;;;7390012;19;19999;-69
2022/01/05 12:24:57;;;;;;;2.60;1.00;;;;;;;;;;7394471;19;19998;-70
2022/01/05 12:27:26;;;;;;;2.15;0.80;;;;;;;;;;7389929;19;20110;-69
2022/01/05 12:29:53;;;;;;;1.88;0.55;;;;;;;;;;7387088;19;20003;-69
2022/01/05 12:32:38;;;;;;;1.42;0.50;;;;;;;;;;7390438;19;20441;-69
2022/01/05 12:35:05;;;;;;;1.33;0.90;;;;;;;;;;7389979;19;20012;-70
2022/01/05 12:38:04;;;;;;;2.65;0.70;;;;;;;;;;7389612;19;20009;-69
2022/01/05 12:40:42;;;;;;;1.95;0.70;;;;;;;;;;7387069;19;20018;-69
2022/01/05 12:43:10;;;;;;;2.65;1.25;;;;;;;;;;7391033;19;20006;-69
2022/01/05 12:45:54;;;;;;;1.58;0.93;;;;;;;;;;7390700;19;20456;-69
2022/01/05 12:48:39;;;;;;;5.20;1.00;;;;;;;;;;7388185;19;20003;-69
2022/01/05 12:54:02;;;;;;;3.85;1.30;;;;;;;;;;7393541;19;19983;-69
2022/01/05 12:56:45;;;;;;;1.83;1.02;;;;;;;;;;7389620;19;20002;-70
2022/01/05 12:59:19;;;;;;;2.72;1.05;;;;;;;;;;7386731;19;20480;-69
2022/01/05 13:01:44;;;;;;;5.85;1.75;;;;;;;;;;7388346;19;20460;-70
2022/01/05 13:04:12;;;;;;;2.30;1.10;;;;;;;;;;7389116;19;20002;-69
2022/01/05 13:06:39;;;;;;;1.65;0.88;;;;;;;;;;7388979;19;20073;-69
2022/01/05 13:09:08;;;;;;;1.60;0.93;;;;;;;;;;7387209;19;20039;-69
2022/01/05 13:11:45;;;;;;;1.73;1.10;;;;;;;;;;7389751;19;20002;-69
2022/01/05 13:14:20;;;;;;;1.58;0.80;;;;;;;;;;7392062;19;20486;-70
2022/01/05 13:16:51;;;;;;;1.92;0.60;;;;;;;;;;7388744;19;20555;-69
2022/01/05 13:19:47;;;;;;;1.08;0.65;;;;;;;;;;7386865;19;19998;-70
2022/01/05 13:22:29;;;;;;;2.58;0.98;;;;;;;;;;7386112;19;20308;-69
2022/01/05 13:25:02;;;;;;;4.68;1.48;;;;;;;;;;7386974;19;20313;-70
2022/01/05 13:27:34;;;;;;;5.28;1.45;;;;;;;;;;7388337;19;19998;-70
2022/01/05 13:30:03;;;;;;;3.42;1.40;;;;;;;;;;7387796;19;19994;-69
2022/01/05 13:32:30;;;;;;;4.03;0.90;;;;;;;;;;7388017;19;20005;-69
2022/01/05 13:35:06;;;;;;;1.67;0.63;;;;;;;;;;7387884;19;19998;-69
2022/01/05 13:37:47;;;;;;;2.47;0.68;;;;;;;;;;7387765;19;19998;-70
2022/01/05 13:40:20;;;;;;;4.07;0.70;;;;;;;;;;7386920;19;20480;-70
2022/01/05 13:42:55;;;;;;;3.50;1.40;;;;;;;;;;7387683;19;20026;-70
2022/01/05 13:45:26;;;;;;;2.73;1.20;;;;;;;;;;7387699;19;20526;-70
2022/01/05 13:47:59;;;;;;;3.55;0.93;;;;;;;;;;7387316;19;20244;-70
2022/01/05 13:50:37;;;;;;;1.88;0.90;;;;;;;;;;7387145;19;20009;-70
2022/01/05 13:53:15;;;;;;;3.28;1.08;;;;;;;;;;7387902;19;20488;-70
2022/01/05 13:55:45;;;;;;;2.30;0.90;;;;;;;;;;7387652;19;20005;-70
2022/01/05 13:58:22;;;;;;;1.15;0.70;;;;;;;;;;7385917;19;20085;-71
2022/01/05 14:00:51;;;;;;;3.30;0.70;;;;;;;;;;7387008;19;20067;-70
2022/01/05 14:03:44;;;;;;;4.57;1.08;;;;;;;;;;7390512;19;20007;-70
2022/01/05 14:06:23;;;;;;;4.03;1.08;;;;;;;;;;7391845;19;19991;-70
2022/01/05 14:08:53;;;;;;;2.42;0.65;;;;;;;;;;7392329;19;19999;-70
2022/01/05 14:11:19;;;;;;;4.72;1.00;;;;;;;;;;7395097;19;20013;-70
2022/01/05 14:13:48;;;;;;;1.13;0.60;;;;;;;;;;7394846;19;20002;-70
2022/01/05 14:16:47;;;;;;;3.47;0.60;;;;;;;;;;7394300;19;20059;-70
2022/01/05 14:19:26;;;;;;;4.40;1.02;;;;;;;;;;7390857;19;20457;-70
2022/01/05 14:22:07;;;;;;;3.55;0.90;;;;;;;;;;7392341;19;19999;-70
2022/01/05 14:24:37;;;;;;;4.13;0.80;;;;;;;;;;7394268;19;20002;-70
2022/01/05 14:27:03;;;;;;;1.23;0.63;;;;;;;;;;7394966;19;19999;-70
2022/01/05 14:29:29;;;;;;;1.65;0.80;;;;;;;;;;7391516;19;20006;-70
2022/01/05 14:32:08;;;;;;;2.75;0.90;;;;;;;;;;7394228;19;19999;-70
2022/01/05 14:34:52;;;;;;;3.28;0.88;;;;;;;;;;7394159;19;20482;-70
2022/01/05 14:37:18;;;;;;;3.88;0.88;;;;;;;;;;7393939;19;20016;-70
2022/01/05 14:39:47;;;;;;;2.88;0.88;;;;;;;;;;7390564;19;20523;-70
2022/01/05 14:42:14;;;;;;;3.10;0.77;;;;;;;;;;7391479;19;20006;-70
2022/01/05 14:44:41;;;;;;;8.52;1.10;;;;;;;;;;7392437;19;20002;-70
2022/01/05 14:47:12;;;;;;;4.03;0.80;;;;;;;;;;7394519;19;20034;-70
2022/01/05 14:49:39;;;;;;;3.10;1.10;;;;;;;;;;7389672;19;20003;-70
2022/01/05 14:52:07;;;;;;;2.88;1.00;;;;;;;;;;7394374;19;20058;-70
2022/01/05 14:54:37;;;;;;;3.42;0.80;;;;;;;;;;7397043;19;19999;-70